Time;durP1;ratioP1;P1;durP2;ratioP2;P2;SDS_P1;SDS_P2;PMS_P1;PMS_P2;Temp;Humidity;BMP_temperature;BMP_pressure;BME280_temperature;BME280_humidity;BME280_pressure;Samples;Min_cycle;Max_cycle;Signal;HPM_P1;HPM_P2
2024/03/24 00:01:09;;;;;;;4.97;1.20;;;4.90;99.90;;;;;;5071057;28;20456;-66
2024/03/24 00:03:38;;;;;;;1.23;0.70;;;4.90;99.90;;;;;;5064933;28;20040;-66
2024/03/24 00:06:04;;;;;;;1.47;1.00;;;4.90;99.90;;;;;;5068228;28;20444;-66
2024/03/24 00:08:33;;;;;;;3.63;0.88;;;4.90;99.90;;;;;;5070577;28;20087;-66
2024/03/24 00:10:59;;;;;;;2.55;0.90;;;4.90;99.90;;;;;;5060821;28;20041;-66
2024/03/24 00:13:25;;;;;;;0.52;0.52;;;4.90;99.90;;;;;;5072057;28;20047;-66
2024/03/24 00:15:52;;;;;;;5.45;1.00;;;4.90;99.90;;;;;;5067544;28;20113;-66
2024/03/24 00:18:17;;;;;;;6.68;1.10;;;4.90;99.90;;;;;;5076052;28;20044;-66
2024/03/24 00:20:44;;;;;;;0.80;0.80;;;4.90;99.90;;;;;;5076006;28;20052;-66
2024/03/24 00:23:10;;;;;;;8.45;1.10;;;4.90;99.90;;;;;;5067335;28;20135;-66
2024/03/24 00:25:36;;;;;;;3.65;1.45;;;5.00;99.90;;;;;;5069637;28;20131;-66
2024/03/24 00:28:02;;;;;;;3.92;1.05;;;4.90;99.90;;;;;;5070106;28;20646;-66
2024/03/24 00:30:28;;;;;;;2.58;1.10;;;5.00;99.90;;;;;;5081756;28;20044;-66
2024/03/24 00:32:54;;;;;;;9.75;1.98;;;5.00;99.90;;;;;;5070673;28;20044;-66
2024/03/24 00:35:20;;;;;;;1.90;0.70;;;5.00;99.90;;;;;;5073704;28;20552;-66
2024/03/24 00:37:45;;;;;;;3.60;0.95;;;5.00;99.90;;;;;;5079814;28;20041;-66
2024/03/24 00:40:11;;;;;;;2.15;1.02;;;4.90;99.90;;;;;;5069346;28;20040;-66
2024/03/24 00:42:37;;;;;;;3.72;1.45;;;5.00;99.90;;;;;;5078371;28;20069;-66
2024/03/24 00:45:04;;;;;;;6.15;1.73;;;5.00;99.90;;;;;;5073836;28;20036;-67
2024/03/24 00:47:36;;;;;;;5.35;1.40;;;5.00;99.90;;;;;;5071659;28;20044;-66
2024/03/24 00:50:05;;;;;;;3.03;1.23;;;5.00;99.90;;;;;;5068462;28;20372;-67
2024/03/24 00:52:31;;;;;;;4.55;1.55;;;5.00;99.90;;;;;;5072857;28;20080;-67
2024/03/24 00:54:58;;;;;;;5.43;1.63;;;5.10;99.90;;;;;;5046564;28;20427;-67
2024/03/24 00:57:24;;;;;;;2.05;1.25;;;5.10;99.90;;;;;;5072696;28;20627;-67
2024/03/24 00:59:51;;;;;;;6.65;1.60;;;5.10;99.90;;;;;;5075593;28;20494;-66
2024/03/24 01:02:16;;;;;;;2.58;0.98;;;5.10;99.90;;;;;;5068735;28;20608;-67
2024/03/24 01:04:42;;;;;;;1.48;1.00;;;5.10;99.90;;;;;;5082157;28;20040;-66
2024/03/24 01:07:08;;;;;;;2.70;1.10;;;5.10;99.90;;;;;;5077426;28;20032;-66
2024/03/24 01:09:33;;;;;;;0.60;0.57;;;5.10;99.90;;;;;;5076739;28;20036;-66
2024/03/24 01:11:59;;;;;;;6.40;0.77;;;5.10;99.90;;;;;;5074228;28;20441;-67
2024/03/24 01:14:24;;;;;;;1.52;0.90;;;5.10;99.90;;;;;;5078587;28;20036;-66
2024/03/24 01:16:50;;;;;;;5.65;1.50;;;5.10;99.90;;;;;;5080496;28;20081;-66
2024/03/24 01:19:16;;;;;;;0.70;0.60;;;5.20;99.90;;;;;;5074370;28;20600;-66
2024/03/24 01:21:42;;;;;;;1.13;0.93;;;5.10;99.90;;;;;;5074754;28;20608;-66
2024/03/24 01:24:07;;;;;;;2.17;1.05;;;5.20;99.90;;;;;;5077048;28;20052;-66
2024/03/24 01:26:33;;;;;;;2.08;1.55;;;5.20;99.90;;;;;;5083154;28;20051;-66
2024/03/24 01:28:59;;;;;;;2.90;1.27;;;5.20;99.90;;;;;;5076211;28;20850;-66
2024/03/24 01:31:25;;;;;;;1.40;1.20;;;5.10;99.90;;;;;;5077203;28;20051;-66
2024/03/24 01:33:51;;;;;;;2.38;1.45;;;5.10;99.90;;;;;;5082771;28;20555;-66
2024/03/24 01:36:17;;;;;;;2.65;1.38;;;5.20;99.90;;;;;;5079265;28;20460;-67
2024/03/24 01:38:43;;;;;;;2.67;1.35;;;5.10;99.90;;;;;;5079578;28;20047;-66
2024/03/24 01:41:09;;;;;;;4.35;1.55;;;5.20;99.90;;;;;;5084691;28;20049;-66
2024/03/24 01:43:35;;;;;;;2.80;1.10;;;5.10;99.90;;;;;;5079023;28;20044;-66
2024/03/24 01:46:00;;;;;;;5.47;1.70;;;5.20;99.90;;;;;;5080068;28;20040;-66
2024/03/24 01:48:26;;;;;;;4.78;1.92;;;5.20;99.90;;;;;;5071957;28;20048;-67
2024/03/24 01:50:52;;;;;;;1.25;1.15;;;5.20;99.90;;;;;;5079196;28;20051;-66
2024/03/24 01:53:20;;;;;;;7.93;1.55;;;5.20;99.90;;;;;;5080851;28;20040;-67
2024/03/24 01:55:46;;;;;;;7.55;2.00;;;5.20;99.90;;;;;;5077210;28;20041;-67
2024/03/24 01:58:12;;;;;;;2.95;1.38;;;5.10;99.90;;;;;;5075315;28;20299;-67
2024/03/24 02:00:38;;;;;;;5.07;2.08;;;5.10;99.90;;;;;;5077069;28;20044;-67
2024/03/24 02:03:04;;;;;;;2.83;1.90;;;5.20;99.90;;;;;;5074316;28;20055;-67
2024/03/24 02:05:30;;;;;;;2.03;1.45;;;5.20;99.90;;;;;;5068918;28;20044;-66
2024/03/24 02:07:56;;;;;;;3.35;1.70;;;5.30;99.90;;;;;;5070339;28;20196;-67
2024/03/24 02:10:29;;;;;;;6.18;1.52;;;5.20;99.90;;;;;;5096098;28;20101;-67
2024/03/24 02:12:54;;;;;;;1.30;1.17;;;5.20;99.90;;;;;;5075526;28;20047;-67
2024/03/24 02:15:20;;;;;;;5.32;1.70;;;5.30;99.90;;;;;;5072617;28;20415;-67
2024/03/24 02:17:47;;;;;;;3.15;1.38;;;5.20;99.90;;;;;;5072053;28;20562;-66
2024/03/24 02:20:13;;;;;;;4.72;1.70;;;5.20;99.90;;;;;;5072093;28;20151;-66
2024/03/24 02:22:39;;;;;;;1.20;1.10;;;5.30;99.90;;;;;;5069176;28;20062;-66
2024/03/24 02:25:05;;;;;;;1.00;1.00;;;5.20;99.90;;;;;;5078974;28;20093;-66
2024/03/24 02:27:32;;;;;;;1.83;1.23;;;5.20;99.90;;;;;;5071004;28;20075;-66
2024/03/24 02:29:58;;;;;;;2.70;1.33;;;5.30;99.90;;;;;;5067277;28;20063;-66
2024/03/24 02:32:24;;;;;;;4.47;1.00;;;5.20;99.90;;;;;;5077267;28;20475;-66
2024/03/24 02:34:49;;;;;;;4.00;1.02;;;5.20;99.90;;;;;;5080204;28;20036;-66
2024/03/24 02:37:15;;;;;;;1.75;0.65;;;5.20;99.90;;;;;;5077546;28;20454;-64
2024/03/24 02:39:41;;;;;;;0.57;0.55;;;5.10;99.90;;;;;;5078535;28;20049;-64
2024/03/24 02:42:06;;;;;;;0.43;0.43;;;5.00;99.90;;;;;;5079014;28;20321;-66
2024/03/24 02:44:32;;;;;;;1.05;0.50;;;5.10;99.90;;;;;;5080287;28;20043;-66
2024/03/24 02:46:58;;;;;;;0.35;0.35;;;5.00;99.90;;;;;;5076294;28;20521;-66
2024/03/24 02:49:23;;;;;;;0.40;0.32;;;5.00;99.90;;;;;;5070591;28;20275;-66
2024/03/24 02:51:49;;;;;;;1.27;0.43;;;5.00;99.90;;;;;;5078872;28;20043;-66
2024/03/24 02:54:15;;;;;;;0.88;0.40;;;4.90;99.90;;;;;;5076891;28;20126;-66
2024/03/24 02:56:40;;;;;;;1.08;0.60;;;4.90;99.90;;;;;;5079897;28;20044;-66
2024/03/24 02:59:06;;;;;;;0.35;0.35;;;4.90;99.90;;;;;;5069702;28;20083;-66
2024/03/24 03:01:32;;;;;;;0.57;0.40;;;4.80;99.90;;;;;;5079561;28;20051;-66
2024/03/24 03:03:58;;;;;;;0.43;0.30;;;4.80;99.90;;;;;;5079191;28;20047;-66
2024/03/24 03:06:24;;;;;;;0.30;0.30;;;4.80;99.90;;;;;;5072420;28;20044;-66
2024/03/24 03:08:49;;;;;;;0.40;0.40;;;4.80;99.90;;;;;;5077216;28;20047;-65
2024/03/24 03:11:15;;;;;;;0.70;0.30;;;4.70;99.90;;;;;;5074427;28;20375;-66
2024/03/24 03:13:41;;;;;;;2.05;0.40;;;4.70;99.90;;;;;;5073497;28;20043;-66
2024/03/24 03:16:07;;;;;;;0.85;0.30;;;4.80;99.90;;;;;;5077213;28;20040;-65
2024/03/24 03:18:32;;;;;;;0.85;0.55;;;4.70;99.90;;;;;;5079754;28;20151;-65
2024/03/24 03:20:58;;;;;;;4.57;0.63;;;4.80;99.90;;;;;;5075628;28;20084;-66
2024/03/24 03:23:24;;;;;;;0.57;0.40;;;4.80;99.90;;;;;;5079414;28;20123;-65
2024/03/24 03:25:49;;;;;;;1.55;0.30;;;4.80;99.90;;;;;;5076542;28;20371;-66
2024/03/24 03:28:16;;;;;;;0.45;0.40;;;4.90;99.90;;;;;;5073767;28;20166;-65
2024/03/24 03:30:42;;;;;;;1.50;0.52;;;5.00;99.90;;;;;;5069130;28;20051;-65
2024/03/24 03:33:08;;;;;;;1.02;0.15;;;5.00;99.90;;;;;;5072005;28;20051;-65
2024/03/24 03:35:33;;;;;;;4.03;0.65;;;5.00;99.90;;;;;;5080228;28;20088;-65
2024/03/24 03:37:59;;;;;;;2.28;0.90;;;4.90;99.90;;;;;;5073051;28;20867;-66
2024/03/24 03:40:25;;;;;;;2.08;0.70;;;5.00;99.90;;;;;;5073885;28;20458;-65
2024/03/24 03:42:50;;;;;;;1.10;0.38;;;5.00;99.90;;;;;;5069951;28;20051;-66
2024/03/24 03:45:17;;;;;;;4.78;0.57;;;5.00;99.90;;;;;;5060030;28;20585;-65
2024/03/24 03:47:43;;;;;;;2.50;0.50;;;5.00;99.90;;;;;;5071649;28;20054;-65
2024/03/24 03:50:13;;;;;;;6.70;0.70;;;5.00;99.90;;;;;;5062718;28;20049;-66
2024/03/24 03:52:47;;;;;;;7.10;0.75;;;5.10;99.90;;;;;;5065272;28;20060;-65
2024/03/24 03:55:16;;;;;;;0.75;0.45;;;5.00;99.90;;;;;;5059220;28;20101;-65
2024/03/24 03:57:43;;;;;;;0.47;0.47;;;5.10;99.90;;;;;;5066910;28;20122;-65
2024/03/24 04:00:12;;;;;;;1.17;0.55;;;5.10;99.90;;;;;;5061785;28;20045;-65
2024/03/24 04:02:41;;;;;;;1.38;0.85;;;5.20;99.90;;;;;;5070110;28;20118;-66
2024/03/24 04:05:09;;;;;;;2.42;0.70;;;5.20;99.90;;;;;;5072555;28;20105;-66
2024/03/24 04:07:36;;;;;;;5.38;0.75;;;5.20;99.90;;;;;;5067870;28;20111;-66
2024/03/24 04:10:02;;;;;;;5.55;0.75;;;5.30;99.90;;;;;;5072037;28;20047;-66
2024/03/24 04:12:29;;;;;;;6.13;0.90;;;5.30;99.90;;;;;;5056063;28;20056;-66
2024/03/24 04:14:55;;;;;;;3.33;0.65;;;5.20;99.90;;;;;;5078930;28;20043;-66
2024/03/24 04:17:20;;;;;;;1.92;0.80;;;5.20;99.90;;;;;;5068630;28;20044;-66
2024/03/24 04:19:46;;;;;;;3.40;0.88;;;5.30;99.90;;;;;;5078960;28;20060;-66
2024/03/24 04:22:12;;;;;;;0.60;0.60;;;5.30;99.90;;;;;;5076562;28;20542;-66
2024/03/24 04:24:38;;;;;;;1.85;0.57;;;5.20;99.90;;;;;;5077318;28;20063;-66
2024/03/24 04:27:04;;;;;;;3.03;0.52;;;5.30;99.90;;;;;;5066459;28;20411;-66
2024/03/24 04:29:30;;;;;;;1.65;0.98;;;5.30;99.90;;;;;;5075848;28;20166;-66
2024/03/24 04:31:57;;;;;;;2.42;0.70;;;5.30;99.90;;;;;;5077238;28;20477;-66
2024/03/24 04:34:23;;;;;;;2.20;0.80;;;5.30;99.90;;;;;;5076145;28;20787;-65
2024/03/24 04:36:48;;;;;;;6.78;1.55;;;5.30;99.90;;;;;;5076954;28;20115;-66
2024/03/24 04:39:18;;;;;;;1.67;0.80;;;5.30;99.90;;;;;;5072600;28;20040;-66
2024/03/24 04:41:48;;;;;;;0.70;0.45;;;5.30;99.90;;;;;;5070393;28;20389;-65
2024/03/24 04:44:14;;;;;;;2.55;0.65;;;5.20;99.90;;;;;;5075636;28;20161;-66
2024/03/24 04:46:40;;;;;;;6.95;1.85;;;5.20;99.90;;;;;;5078295;28;20396;-66
2024/03/24 04:49:06;;;;;;;2.58;0.90;;;5.20;99.90;;;;;;5073881;28;20044;-66
2024/03/24 04:51:32;;;;;;;2.78;0.93;;;5.30;99.90;;;;;;5056048;28;20482;-66
2024/03/24 04:53:57;;;;;;;2.30;0.63;;;5.20;99.90;;;;;;5078102;28;20036;-65
2024/03/24 04:56:23;;;;;;;0.85;0.70;;;5.20;99.90;;;;;;5076892;28;20177;-65
2024/03/24 04:58:49;;;;;;;4.95;0.95;;;5.30;99.90;;;;;;5079520;28;20048;-65
2024/03/24 05:01:15;;;;;;;3.08;0.55;;;5.30;99.90;;;;;;5080281;28;20047;-65
2024/03/24 05:03:41;;;;;;;3.42;1.20;;;5.30;99.90;;;;;;5079694;28;20401;-65
2024/03/24 05:06:07;;;;;;;0.65;0.52;;;5.30;99.90;;;;;;5081046;28;20406;-66
2024/03/24 05:08:36;;;;;;;1.45;0.35;;;5.20;99.90;;;;;;5074770;28;20040;-66
2024/03/24 05:11:09;;;;;;;1.90;0.45;;;5.30;99.90;;;;;;5067780;28;20044;-66
2024/03/24 05:13:40;;;;;;;1.92;0.82;;;5.20;99.90;;;;;;5073763;28;20475;-66
2024/03/24 05:16:07;;;;;;;4.50;1.42;;;5.30;99.90;;;;;;5076376;28;20452;-65
2024/03/24 05:18:36;;;;;;;7.22;0.90;;;5.30;99.90;;;;;;5072915;28;20333;-66
2024/03/24 05:21:05;;;;;;;2.13;0.93;;;5.30;99.90;;;;;;5080757;28;20619;-66
2024/03/24 05:23:32;;;;;;;7.78;1.08;;;5.30;99.90;;;;;;5074708;28;20392;-65
2024/03/24 05:25:57;;;;;;;4.10;0.50;;;5.30;99.90;;;;;;5076039;28;20040;-66
2024/03/24 05:28:23;;;;;;;4.50;0.90;;;5.30;99.90;;;;;;5069866;28;20117;-66
2024/03/24 05:30:52;;;;;;;1.08;0.60;;;5.30;99.90;;;;;;5076927;28;20139;-65
2024/03/24 05:33:21;;;;;;;1.95;0.47;;;5.30;99.90;;;;;;5079509;28;20052;-66
2024/03/24 05:35:47;;;;;;;3.92;0.80;;;5.20;99.90;;;;;;5083162;28;20143;-66
2024/03/24 05:38:13;;;;;;;1.92;0.77;;;5.20;99.90;;;;;;5078936;28;20458;-65
2024/03/24 05:40:39;;;;;;;1.25;0.40;;;5.20;99.90;;;;;;5063564;28;20098;-66
2024/03/24 05:43:05;;;;;;;1.27;0.50;;;5.30;99.90;;;;;;5080166;28;20082;-65
2024/03/24 05:45:35;;;;;;;0.80;0.55;;;5.30;99.90;;;;;;5080742;28;20600;-65
2024/03/24 05:48:01;;;;;;;5.10;0.65;;;5.40;99.90;;;;;;5078347;28;20261;-66
2024/03/24 05:50:28;;;;;;;3.20;0.70;;;5.40;99.90;;;;;;5076245;28;20054;-66
2024/03/24 05:52:54;;;;;;;3.00;0.60;;;5.40;99.90;;;;;;5079129;28;20048;-66
2024/03/24 05:55:19;;;;;;;3.85;0.73;;;5.40;99.90;;;;;;5078100;28;20513;-66
2024/03/24 05:57:46;;;;;;;11.98;1.55;;;5.40;99.90;;;;;;5075098;28;20046;-66
2024/03/24 06:00:12;;;;;;;7.40;1.63;;;5.40;99.90;;;;;;5080423;28;20405;-67
2024/03/24 06:02:38;;;;;;;11.13;1.98;;;5.50;99.90;;;;;;5095289;28;20525;-66
2024/03/24 06:05:06;;;;;;;0.90;0.50;;;5.40;99.90;;;;;;5076083;28;20040;-66
2024/03/24 06:07:33;;;;;;;1.85;0.75;;;5.00;99.90;;;;;;5080319;28;20069;-66
2024/03/24 06:09:59;;;;;;;6.22;0.73;;;5.00;99.90;;;;;;5075574;28;20047;-66
2024/03/24 06:12:27;;;;;;;1.45;0.43;;;4.80;99.90;;;;;;5073656;28;20330;-66
2024/03/24 06:14:52;;;;;;;2.10;0.30;;;4.70;99.90;;;;;;5079499;28;20051;-66
2024/03/24 06:17:18;;;;;;;2.50;0.43;;;4.60;99.90;;;;;;5070251;28;20052;-66
2024/03/24 06:19:44;;;;;;;0.60;0.32;;;4.60;99.90;;;;;;5076570;28;20052;-66
2024/03/24 06:22:10;;;;;;;0.43;0.30;;;4.40;99.90;;;;;;5057310;28;20393;-66
2024/03/24 06:24:36;;;;;;;2.85;0.30;;;4.50;99.90;;;;;;5078629;28;20048;-66
2024/03/24 06:27:02;;;;;;;0.05;0.05;;;4.40;99.90;;;;;;5076579;28;20040;-66
2024/03/24 06:29:27;;;;;;;1.00;0.10;;;4.40;99.90;;;;;;5069902;28;20044;-66
2024/03/24 06:31:53;;;;;;;4.90;1.08;;;4.50;99.90;;;;;;5072581;28;20459;-66
2024/03/24 06:34:19;;;;;;;2.67;0.35;;;4.50;99.90;;;;;;5062240;28;20044;-66
2024/03/24 06:36:47;;;;;;;2.50;0.50;;;4.50;99.90;;;;;;5080837;28;20052;-66
2024/03/24 06:39:13;;;;;;;3.40;1.17;;;4.50;99.90;;;;;;5064138;28;20048;-66
2024/03/24 06:41:41;;;;;;;2.78;0.85;;;4.50;99.90;;;;;;5077799;28;20511;-66
2024/03/24 06:44:16;;;;;;;4.47;0.50;;;4.50;99.90;;;;;;5079231;28;20051;-66
2024/03/24 06:46:45;;;;;;;5.75;0.40;;;4.60;99.90;;;;;;5072984;28;20051;-66
2024/03/24 06:49:14;;;;;;;2.58;0.40;;;4.70;99.90;;;;;;5074837;28;20391;-65
2024/03/24 06:51:40;;;;;;;2.60;0.22;;;4.80;99.90;;;;;;5075297;28;20051;-66
2024/03/24 06:54:05;;;;;;;0.88;0.40;;;4.90;99.90;;;;;;5073493;28;20127;-66
2024/03/24 06:56:31;;;;;;;4.05;1.23;;;4.90;99.90;;;;;;5076751;28;20408;-65
2024/03/24 06:58:57;;;;;;;4.45;0.80;;;5.00;99.90;;;;;;5080599;28;20055;-66
2024/03/24 07:01:23;;;;;;;9.15;0.88;;;5.10;99.90;;;;;;5078228;28;20040;-66
2024/03/24 07:03:51;;;;;;;1.92;0.40;;;5.10;99.90;;;;;;5079177;28;20090;-65
2024/03/24 07:06:17;;;;;;;5.93;1.90;;;5.10;99.90;;;;;;5070514;28;20080;-66
2024/03/24 07:08:43;;;;;;;2.58;0.50;;;5.20;99.90;;;;;;5066626;28;20051;-66
2024/03/24 07:11:09;;;;;;;6.20;1.55;;;5.20;99.90;;;;;;5070418;28;20036;-66
2024/03/24 07:13:34;;;;;;;7.03;0.70;;;5.20;99.90;;;;;;5077039;28;20595;-66
2024/03/24 07:16:00;;;;;;;1.55;0.13;;;5.20;99.90;;;;;;5074426;28;20404;-66
2024/03/24 07:18:27;;;;;;;1.85;0.30;;;5.20;99.90;;;;;;5071955;28;20083;-66
2024/03/24 07:21:00;;;;;;;0.38;0.10;;;5.20;99.90;;;;;;5078419;28;20066;-67
2024/03/24 07:23:25;;;;;;;2.90;0.50;;;5.20;99.90;;;;;;5073192;28;20539;-66
2024/03/24 07:25:51;;;;;;;5.90;1.05;;;5.40;99.90;;;;;;5077077;28;20032;-66
2024/03/24 07:28:17;;;;;;;6.07;1.08;;;5.40;99.90;;;;;;5068146;28;20116;-66
2024/03/24 07:30:43;;;;;;;0.22;0.00;;;5.40;99.90;;;;;;5073666;28;20161;-66
2024/03/24 07:33:10;;;;;;;4.95;0.90;;;5.60;99.90;;;;;;5077526;28;20044;-66
2024/03/24 07:35:36;;;;;;;5.88;1.27;;;5.70;99.90;;;;;;5076989;28;20048;-66
2024/03/24 07:38:02;;;;;;;7.57;0.57;;;5.80;99.90;;;;;;5079207;28;20040;-66
2024/03/24 07:40:29;;;;;;;0.55;0.15;;;5.80;99.90;;;;;;5075039;28;20109;-66
2024/03/24 07:42:55;;;;;;;2.60;0.68;;;5.90;99.90;;;;;;5080801;28;20040;-65
2024/03/24 07:45:21;;;;;;;2.50;0.32;;;5.90;99.90;;;;;;5086341;28;20379;-66
2024/03/24 07:47:49;;;;;;;0.88;0.13;;;6.10;99.90;;;;;;5081821;28;20047;-66
2024/03/24 07:50:15;;;;;;;2.63;0.70;;;6.20;99.90;;;;;;5080705;28;20051;-65
2024/03/24 07:52:41;;;;;;;4.82;0.47;;;6.20;99.90;;;;;;5080690;28;20052;-66
2024/03/24 07:55:07;;;;;;;4.60;0.90;;;6.30;99.90;;;;;;5085541;28;20048;-66
2024/03/24 07:57:33;;;;;;;2.47;0.88;;;6.30;99.90;;;;;;5083102;28;20395;-65
2024/03/24 07:59:59;;;;;;;3.90;0.25;;;6.40;99.90;;;;;;5084358;28;20119;-65
2024/03/24 08:02:25;;;;;;;5.32;0.52;;;6.40;99.90;;;;;;5085922;28;20145;-66
2024/03/24 08:04:51;;;;;;;2.80;0.63;;;6.50;99.90;;;;;;5088214;28;20050;-65
2024/03/24 08:07:16;;;;;;;2.65;0.28;;;6.60;99.90;;;;;;5083722;28;20054;-65
2024/03/24 08:09:42;;;;;;;0.38;0.20;;;6.70;99.90;;;;;;5085280;28;20144;-66
2024/03/24 08:12:08;;;;;;;0.57;0.22;;;6.70;99.90;;;;;;5088467;28;20048;-65
2024/03/24 08:14:33;;;;;;;0.20;0.20;;;6.60;99.90;;;;;;5081116;28;20035;-64
2024/03/24 08:17:00;;;;;;;3.38;0.28;;;6.60;99.90;;;;;;5088238;28;20037;-64
2024/03/24 08:19:26;;;;;;;0.00;0.00;;;6.50;99.90;;;;;;5090187;28;20587;-65
2024/03/24 08:21:54;;;;;;;0.40;0.40;;;6.50;99.90;;;;;;5087249;28;20127;-64
2024/03/24 08:24:19;;;;;;;1.13;0.50;;;6.50;99.90;;;;;;5084857;28;20119;-64
2024/03/24 08:26:45;;;;;;;2.50;0.30;;;6.40;99.90;;;;;;5082128;28;20526;-65
2024/03/24 08:29:11;;;;;;;1.00;0.77;;;6.50;99.90;;;;;;5088583;28;20048;-65
2024/03/24 08:31:37;;;;;;;4.60;0.55;;;6.50;99.90;;;;;;5086799;28;20056;-64
2024/03/24 08:34:02;;;;;;;0.73;0.20;;;6.60;99.90;;;;;;5073071;28;20055;-65
2024/03/24 08:36:28;;;;;;;0.30;0.10;;;6.60;99.90;;;;;;5091738;28;20452;-65
2024/03/24 08:38:54;;;;;;;2.47;0.63;;;6.60;99.90;;;;;;5091371;28;20036;-64
2024/03/24 08:41:19;;;;;;;2.05;0.63;;;6.60;99.90;;;;;;5087229;28;20047;-64
2024/03/24 08:43:45;;;;;;;0.77;0.30;;;6.60;99.90;;;;;;5088238;28;20045;-65
2024/03/24 08:46:11;;;;;;;3.90;1.00;;;6.70;99.90;;;;;;5093056;28;20032;-64
2024/03/24 08:48:36;;;;;;;2.17;0.45;;;6.70;99.90;;;;;;5086728;28;20043;-65
2024/03/24 08:51:02;;;;;;;3.03;0.40;;;6.60;99.90;;;;;;5106024;27;20044;-64
2024/03/24 08:53:28;;;;;;;0.28;0.28;;;6.60;99.90;;;;;;5094359;28;20733;-64
2024/03/24 08:55:54;;;;;;;0.65;0.30;;;6.60;99.90;;;;;;5087054;28;20043;-65
2024/03/24 08:58:19;;;;;;;1.45;0.30;;;6.50;99.90;;;;;;5074052;28;20048;-65
2024/03/24 09:00:52;;;;;;;3.22;0.40;;;6.50;99.90;;;;;;5085332;28;20047;-65
2024/03/24 09:03:17;;;;;;;0.80;0.35;;;6.40;99.90;;;;;;5090181;28;20054;-65
2024/03/24 09:05:43;;;;;;;4.15;0.77;;;6.40;99.90;;;;;;5074390;28;20048;-65
2024/03/24 09:08:08;;;;;;;0.28;0.20;;;6.40;99.90;;;;;;5071513;28;20648;-65
2024/03/24 09:10:36;;;;;;;1.23;0.20;;;6.30;99.90;;;;;;5075326;28;20048;-65
2024/03/24 09:13:02;;;;;;;0.15;0.10;;;6.40;99.90;;;;;;5077819;28;20451;-65
2024/03/24 09:15:27;;;;;;;0.17;0.17;;;6.40;99.90;;;;;;5077739;28;20044;-65
2024/03/24 09:17:53;;;;;;;2.78;0.13;;;6.50;99.90;;;;;;5076760;28;20457;-65
2024/03/24 09:20:19;;;;;;;1.98;0.10;;;6.50;99.90;;;;;;5072211;28;20057;-65
2024/03/24 09:22:46;;;;;;;1.38;0.20;;;6.60;99.90;;;;;;5062279;28;20048;-65
2024/03/24 09:25:11;;;;;;;0.65;0.20;;;6.60;99.90;;;;;;5063782;28;20039;-65
2024/03/24 09:27:37;;;;;;;0.17;0.17;;;6.70;99.90;;;;;;5062599;28;20048;-64
2024/03/24 09:30:04;;;;;;;1.63;0.30;;;6.90;99.90;;;;;;5070241;28;20086;-64
2024/03/24 09:32:30;;;;;;;3.72;0.22;;;7.10;99.90;;;;;;5070140;28;20319;-65
2024/03/24 09:34:56;;;;;;;0.47;0.20;;;7.40;99.90;;;;;;5068681;28;20052;-64
2024/03/24 09:37:22;;;;;;;2.40;0.32;;;7.60;99.90;;;;;;5070371;28;20059;-64
2024/03/24 09:39:47;;;;;;;4.68;0.80;;;7.80;99.90;;;;;;5070029;28;20178;-63
2024/03/24 09:42:15;;;;;;;5.95;1.95;;;7.60;99.90;;;;;;5072010;28;20052;-65
2024/03/24 09:44:41;;;;;;;2.55;0.73;;;7.40;99.90;;;;;;5071243;28;20081;-65
2024/03/24 09:47:07;;;;;;;4.05;0.70;;;7.20;99.90;;;;;;5076086;28;20051;-65
2024/03/24 09:49:34;;;;;;;0.60;0.40;;;6.90;99.90;;;;;;5073883;28;20040;-65
2024/03/24 09:52:01;;;;;;;2.80;0.35;;;6.80;99.90;;;;;;5067036;28;20036;-65
2024/03/24 09:54:27;;;;;;;3.40;0.90;;;6.70;99.90;;;;;;5069818;28;20124;-65
2024/03/24 09:56:53;;;;;;;0.00;0.00;;;6.60;99.90;;;;;;5061979;28;20119;-65
2024/03/24 09:59:20;;;;;;;0.10;0.03;;;6.40;99.90;;;;;;5071483;28;20123;-65
2024/03/24 10:01:47;;;;;;;1.52;0.20;;;6.30;99.90;;;;;;5074818;28;20135;-66
2024/03/24 10:04:15;;;;;;;4.13;0.32;;;6.20;99.90;;;;;;5064840;28;20123;-65
2024/03/24 10:06:42;;;;;;;0.55;0.20;;;6.10;99.90;;;;;;5062707;28;20443;-65
2024/03/24 10:09:08;;;;;;;0.00;0.00;;;6.00;99.90;;;;;;5064323;28;20142;-65
2024/03/24 10:11:34;;;;;;;5.97;1.55;;;6.00;99.90;;;;;;5080808;28;20478;-65
2024/03/24 10:14:03;;;;;;;1.45;0.43;;;6.10;99.90;;;;;;5068699;28;20097;-65
2024/03/24 10:16:30;;;;;;;0.22;0.22;;;6.30;99.90;;;;;;5069277;28;20336;-65
2024/03/24 10:18:56;;;;;;;0.28;0.28;;;6.50;99.90;;;;;;5079441;28;20052;-64
2024/03/24 10:21:22;;;;;;;4.03;1.50;;;6.80;99.90;;;;;;5077686;28;20124;-65
2024/03/24 10:23:48;;;;;;;2.20;0.80;;;7.10;99.90;;;;;;5072173;28;20472;-64
2024/03/24 10:26:18;;;;;;;7.03;1.30;;;7.40;99.90;;;;;;5071532;28;20036;-64
2024/03/24 10:28:44;;;;;;;;;;;7.50;99.90;;;;;;5071990;28;20048;-65
2024/03/24 10:31:10;;;;;;;0.15;0.10;;;7.50;99.90;;;;;;5071177;28;20327;-65
2024/03/24 10:33:39;;;;;;;2.20;0.80;;;7.50;99.90;;;;;;5066628;28;20403;-64
2024/03/24 10:36:06;;;;;;;2.78;0.57;;;7.50;99.90;;;;;;5063041;28;20048;-64
2024/03/24 10:38:34;;;;;;;0.80;0.65;;;7.60;99.90;;;;;;5070009;28;20032;-65
2024/03/24 10:41:01;;;;;;;10.00;1.02;;;7.80;99.90;;;;;;5070012;28;20036;-64
2024/03/24 10:43:27;;;;;;;0.73;0.63;;;8.10;99.90;;;;;;5061223;28;20546;-64
2024/03/24 10:45:57;;;;;;;9.95;2.28;;;8.30;99.90;;;;;;5067197;28;20261;-64
2024/03/24 10:48:29;;;;;;;18.00;3.75;;;8.50;99.90;;;;;;5072941;28;20037;-64
2024/03/24 10:50:56;;;;;;;9.70;2.45;;;8.50;99.90;;;;;;5077265;28;20055;-64
2024/03/24 10:53:25;;;;;;;13.75;2.45;;;8.50;99.90;;;;;;5062362;28;20048;-64
2024/03/24 10:55:52;;;;;;;6.60;0.73;;;8.60;99.90;;;;;;5061508;28;20131;-64
2024/03/24 10:58:19;;;;;;;5.07;1.23;;;8.70;99.90;;;;;;5073213;28;20523;-64
2024/03/24 11:00:46;;;;;;;17.45;3.35;;;8.70;99.90;;;;;;5063734;28;20063;-65
2024/03/24 11:03:13;;;;;;;15.13;3.47;;;8.60;99.90;;;;;;5069304;28;20131;-65
2024/03/24 11:05:43;;;;;;;16.70;3.30;;;8.40;99.90;;;;;;5070745;28;20504;-65
2024/03/24 11:08:14;;;;;;;12.68;3.20;;;8.10;99.90;;;;;;5067181;28;20156;-65
2024/03/24 11:10:52;;;;;;;24.50;3.88;;;7.90;99.90;;;;;;5070832;28;20044;-65
2024/03/24 11:13:21;;;;;;;20.20;3.42;;;7.70;99.90;;;;;;5062803;28;20119;-65
2024/03/24 11:15:48;;;;;;;16.75;3.50;;;7.80;99.90;;;;;;5071312;28;20059;-65
2024/03/24 11:18:32;;;;;;;16.92;3.95;;;8.00;99.90;;;;;;5047613;28;20339;-65
2024/03/24 11:21:03;;;;;;;18.48;3.10;;;8.30;99.90;;;;;;5067076;28;20060;-65
2024/03/24 11:23:34;;;;;;;18.98;3.67;;;8.40;99.90;;;;;;5060722;28;20059;-65
2024/03/24 11:26:13;;;;;;;10.88;2.95;;;8.70;99.90;;;;;;5071522;28;20052;-65
2024/03/24 11:28:48;;;;;;;14.15;3.63;;;9.00;99.90;;;;;;5079974;28;20526;-64
2024/03/24 11:31:21;;;;;;;19.50;3.63;;;9.00;99.90;;;;;;5072939;28;20051;-64
2024/03/24 11:34:11;;;;;;;9.82;2.63;;;9.10;99.90;;;;;;5064775;28;20052;-64
2024/03/24 11:36:40;;;;;;;9.45;2.97;;;9.20;99.90;;;;;;5067774;28;20566;-64
2024/03/24 11:39:09;;;;;;;13.57;3.33;;;9.30;99.90;;;;;;5066723;28;20048;-64
2024/03/24 11:41:35;;;;;;;20.30;3.65;;;9.40;99.90;;;;;;5073588;28;20044;-64
2024/03/24 11:44:06;;;;;;;10.52;3.15;;;9.40;99.90;;;;;;5066817;28;20067;-64
2024/03/24 11:46:35;;;;;;;17.73;4.05;;;9.30;99.90;;;;;;5070646;28;20036;-65
2024/03/24 11:49:02;;;;;;;13.98;3.80;;;9.40;99.90;;;;;;5070473;28;20044;-64
2024/03/24 11:51:31;;;;;;;15.05;3.00;;;9.40;99.90;;;;;;5072337;28;20401;-64
2024/03/24 11:53:57;;;;;;;12.32;3.38;;;9.10;99.90;;;;;;5070071;28;20406;-64
2024/03/24 11:56:26;;;;;;;15.23;3.90;;;8.80;99.90;;;;;;5075100;28;20040;-64
2024/03/24 11:58:54;;;;;;;16.85;3.20;;;8.60;99.90;;;;;;5070433;28;20044;-65
2024/03/24 12:01:20;;;;;;;10.50;2.53;;;8.30;99.90;;;;;;5076284;28;20028;-64
2024/03/24 12:03:47;;;;;;;18.02;3.65;;;8.30;99.90;;;;;;5073471;28;20048;-64
2024/03/24 12:06:14;;;;;;;11.07;2.90;;;8.40;99.90;;;;;;5081890;28;20179;-65
2024/03/24 12:08:41;;;;;;;18.33;3.47;;;8.30;99.90;;;;;;5080115;28;20132;-65
2024/03/24 12:11:07;;;;;;;10.38;3.08;;;8.00;99.90;;;;;;5076205;28;20090;-64
2024/03/24 12:13:34;;;;;;;8.43;2.85;;;7.90;99.90;;;;;;5068764;28;20668;-65
2024/03/24 12:16:00;;;;;;;13.13;3.10;;;7.80;99.90;;;;;;5072394;28;20044;-65
2024/03/24 12:18:26;;;;;;;9.40;2.97;;;8.00;99.90;;;;;;5080477;28;20549;-64
2024/03/24 12:20:53;;;;;;;15.02;4.03;;;8.00;99.90;;;;;;5068815;28;20059;-65
2024/03/24 12:23:19;;;;;;;11.65;3.00;;;8.10;99.90;;;;;;5081321;28;20395;-64
2024/03/24 12:25:47;;;;;;;17.67;4.05;;;8.20;99.90;;;;;;5081873;28;20044;-64
2024/03/24 12:28:17;;;;;;;9.55;2.25;;;8.40;99.90;;;;;;5075538;28;20104;-64
2024/03/24 12:30:54;;;;;;;2.83;1.02;;;8.40;99.90;;;;;;5079285;28;20435;-64
2024/03/24 12:33:25;;;;;;;6.85;1.48;;;8.20;99.90;;;;;;5080312;28;20090;-64
2024/03/24 12:35:54;;;;;;;2.83;0.95;;;7.90;99.90;;;;;;5069209;28;20055;-64
2024/03/24 12:38:20;;;;;;;4.78;1.58;;;7.90;99.90;;;;;;5073648;28;20040;-64
2024/03/24 12:40:56;;;;;;;8.13;2.38;;;7.90;99.90;;;;;;5067748;28;20048;-64
2024/03/24 12:43:26;;;;;;;7.05;2.30;;;8.10;99.90;;;;;;5068057;28;20502;-64
2024/03/24 12:45:56;;;;;;;6.82;2.65;;;8.40;99.90;;;;;;5067327;28;20052;-64
2024/03/24 12:48:28;;;;;;;9.07;2.70;;;8.40;99.90;;;;;;5075428;28;20083;-65
2024/03/24 12:50:58;;;;;;;7.25;2.35;;;8.30;99.90;;;;;;5075289;28;20059;-64
2024/03/24 12:53:49;;;;;;;11.73;2.40;;;8.20;99.90;;;;;;5073714;28;20098;-65